Marshfield, Maine
Current Conditions -  °F | °C
As of 7:35 PM on Wednesday 28 Jan 2015 (Local Time) from KBHB Reporting Station
Clear Clear  
Wind Chill: 14°   Ceiling: Unl
Heat Index: 14°   Visibility: 10mi
Dew Point: 10°   Wind: 3mph
Humidity: 86%   Direction: 290°WNW
Pressure: 30.06"   Gusts: NA
Location:  44.8808°N, 67.668°W
Report Text: KBHB 290035Z 29003KT 10SM CLR M10/M12 A3006 RMK AO1
Loading
Personal Weather Stations






























Interactive Weather Map New forecast layout! Learn more

10-Day Weather Forecast

Advertisements
Track Severe Weather on mobile